createdAt,value
2022-11-20T00:04:43.079Z,-3.03
2022-11-20T00:09:46.134Z,-3.03
2022-11-20T00:14:49.103Z,-2.99
2022-11-20T00:19:51.633Z,-2.93
2022-11-20T00:24:54.184Z,-3.13
2022-11-20T00:29:56.979Z,-3.18
2022-11-20T00:34:59.560Z,-3.29
2022-11-20T00:40:02.143Z,-3.28
2022-11-20T00:45:06.064Z,-3.39
2022-11-20T00:50:09.070Z,-3.27
2022-11-20T00:55:11.694Z,-3.10
2022-11-20T01:00:16.365Z,-3.26
2022-11-20T01:05:18.880Z,-3.14
2022-11-20T01:10:21.456Z,-3.21
2022-11-20T01:15:23.981Z,-3.23
2022-11-20T01:20:26.501Z,-3.21
2022-11-20T01:25:29.794Z,-3.12
2022-11-20T01:30:32.386Z,-3.10
2022-11-20T01:35:34.920Z,-3.05
2022-11-20T01:40:37.442Z,-3.26
2022-11-20T01:45:57.305Z,-3.07
2022-11-20T01:51:01.984Z,-3.20
2022-11-20T01:56:09.575Z,-3.21
2022-11-20T02:01:13.831Z,-3.12
2022-11-20T02:06:23.992Z,-3.23
2022-11-20T02:11:26.524Z,-3.18
2022-11-20T02:16:33.389Z,-3.22
2022-11-20T02:22:00.395Z,-3.10
2022-11-20T02:27:12.014Z,-3.33
2022-11-20T02:32:32.952Z,-3.44
2022-11-20T02:37:39.863Z,-3.32
2022-11-20T02:42:42.511Z,-3.33
2022-11-20T02:47:45.173Z,-3.17
2022-11-20T02:52:47.924Z,-3.21
2022-11-20T02:57:50.506Z,-3.03
2022-11-20T03:02:53.179Z,-3.25
2022-11-20T03:07:55.708Z,-3.15
2022-11-20T03:12:58.407Z,-3.15
2022-11-20T03:18:00.945Z,-3.36
2022-11-20T03:23:03.851Z,-3.24
2022-11-20T03:28:06.537Z,-3.15
2022-11-20T03:33:09.334Z,-3.16
2022-11-20T03:38:11.881Z,-3.31
2022-11-20T03:43:14.408Z,-3.15
2022-11-20T03:48:16.914Z,-3.36
2022-11-20T03:53:19.664Z,-3.31
2022-11-20T03:58:22.174Z,-3.68
2022-11-20T04:03:24.787Z,-3.47
2022-11-20T04:08:27.411Z,-3.23
2022-11-20T04:13:29.972Z,-3.18
2022-11-20T04:18:33.818Z,-3.38
2022-11-20T04:23:36.425Z,-3.32
2022-11-20T04:28:40.051Z,-3.20
2022-11-20T04:33:43.918Z,-3.07
2022-11-20T04:38:47.042Z,-2.95
2022-11-20T04:43:51.551Z,-3.19
2022-11-20T04:48:54.564Z,-3.21
2022-11-20T04:53:57.759Z,-3.16
2022-11-20T04:59:03.773Z,-3.42
2022-11-20T05:04:06.931Z,-3.21
2022-11-20T05:09:09.544Z,-2.83
2022-11-20T05:14:12.110Z,-3.00
2022-11-20T05:19:14.838Z,-2.99
2022-11-20T05:24:17.372Z,-3.01
2022-11-20T05:29:20.460Z,-2.77
2022-11-20T05:34:23.604Z,-3.05
2022-11-20T05:39:26.094Z,-2.90
2022-11-20T05:44:28.646Z,-2.93
2022-11-20T05:49:31.179Z,-2.87
2022-11-20T05:54:33.817Z,-2.98
2022-11-20T05:59:36.291Z,-2.87
2022-11-20T06:04:38.858Z,-2.77
2022-11-20T06:09:41.640Z,-2.88
2022-11-20T06:14:44.362Z,-2.70
2022-11-20T06:19:47.041Z,-2.42
2022-11-20T06:24:49.717Z,-2.10
2022-11-20T06:29:52.203Z,-1.87
2022-11-20T06:34:54.855Z,-1.67
2022-11-20T06:39:57.411Z,-1.52
2022-11-20T06:44:59.989Z,-1.38
2022-11-20T06:50:02.679Z,-1.32
2022-11-20T06:55:06.438Z,-1.29
2022-11-20T07:00:09.593Z,-1.15
2022-11-20T07:05:12.380Z,-1.33
2022-11-20T07:10:15.045Z,-1.13
2022-11-20T07:15:18.338Z,-1.31
2022-11-20T07:20:21.054Z,-0.93
2022-11-20T07:25:24.598Z,-0.79
2022-11-20T07:30:28.795Z,-0.54
2022-11-20T07:35:31.394Z,-0.35
2022-11-20T07:40:33.974Z,-0.46
2022-11-20T07:45:36.525Z,-0.41
2022-11-20T07:50:39.626Z,-0.36
2022-11-20T07:55:42.144Z,-0.38
2022-11-20T08:00:44.753Z,-0.13
2022-11-20T08:05:47.273Z,0.02
2022-11-20T08:10:49.835Z,0.23
2022-11-20T08:15:52.469Z,0.22
2022-11-20T08:20:55.058Z,-0.02
2022-11-20T08:25:57.536Z,0.07
2022-11-20T08:31:04.320Z,0.23
2022-11-20T08:36:08.392Z,0.41
2022-11-20T08:41:29.298Z,0.28
2022-11-20T08:46:37.956Z,0.11
2022-11-20T08:51:41.025Z,0.20
2022-11-20T08:56:43.556Z,-0.26
2022-11-20T09:01:46.132Z,0.05
2022-11-20T09:06:52.031Z,0.09
2022-11-20T09:11:54.801Z,0.11
2022-11-20T09:16:57.825Z,-0.30
2022-11-20T09:22:01.146Z,-0.37
2022-11-20T09:27:05.565Z,-0.49
2022-11-20T09:32:08.134Z,-0.64
2022-11-20T09:37:11.160Z,-1.06
2022-11-20T09:42:38.507Z,-0.83
2022-11-20T09:48:00.705Z,-0.37
2022-11-20T09:53:14.708Z,-0.04
2022-11-20T09:58:41.247Z,-0.71
2022-11-20T10:03:59.154Z,-0.46
2022-11-20T10:09:15.398Z,-0.79
2022-11-20T10:14:42.574Z,-0.60
2022-11-20T10:20:28.061Z,-0.53
2022-11-20T10:25:59.077Z,-0.48
2022-11-20T10:31:05.562Z,-0.34
2022-11-20T10:36:20.226Z,-0.47
2022-11-20T10:41:31.926Z,-0.56
2022-11-20T10:46:59.928Z,-0.47
2022-11-20T10:52:26.912Z,-0.46
2022-11-20T10:58:08.236Z,-0.54
2022-11-20T11:03:24.406Z,-0.64
2022-11-20T11:08:34.141Z,-0.89
2022-11-20T11:13:36.771Z,-0.76
2022-11-20T11:18:41.139Z,-0.63
2022-11-20T11:23:44.480Z,-0.76
2022-11-20T11:28:57.863Z,-0.92
2022-11-20T11:34:17.980Z,-1.10
2022-11-20T11:39:22.457Z,-1.17
2022-11-20T11:45:03.310Z,-1.06
2022-11-20T11:50:26.535Z,-1.26
2022-11-20T11:55:44.215Z,-1.14
2022-11-20T12:00:55.227Z,-1.46
2022-11-20T12:06:17.447Z,-1.46
2022-11-20T12:12:05.980Z,-1.44
2022-11-20T12:17:12.837Z,-1.32
2022-11-20T12:22:50.116Z,-1.49
2022-11-20T12:28:37.965Z,-1.83
2022-11-20T12:33:52.654Z,-1.55
2022-11-20T12:39:03.678Z,-1.58
2022-11-20T12:44:54.506Z,-1.72
2022-11-20T12:50:06.193Z,-1.67
2022-11-20T12:55:18.106Z,-1.59
2022-11-20T13:00:24.609Z,-1.76
2022-11-20T13:05:39.231Z,-1.65
2022-11-20T13:10:52.886Z,-1.60
2022-11-20T13:16:17.136Z,-1.49
2022-11-20T13:21:36.829Z,-1.64
2022-11-20T13:26:40.047Z,-1.58
2022-11-20T13:31:46.452Z,-1.93
2022-11-20T13:36:54.349Z,-1.89
2022-11-20T13:42:02.760Z,-1.73
2022-11-20T13:47:21.001Z,-1.68
2022-11-20T13:52:45.347Z,-1.59
2022-11-20T13:57:47.743Z,-1.57
2022-11-20T14:02:59.128Z,-1.52
2022-11-20T14:08:06.697Z,-1.52
2022-11-20T14:13:21.688Z,-1.47
2022-11-20T14:18:27.010Z,-1.47
2022-11-20T14:23:30.606Z,-1.58
2022-11-20T14:28:33.607Z,-1.60
2022-11-20T14:33:37.793Z,-1.60
2022-11-20T14:38:41.720Z,-1.57
2022-11-20T14:43:48.646Z,-1.68
2022-11-20T14:49:01.335Z,-2.00
2022-11-20T14:54:10.917Z,-1.87
2022-11-20T14:59:27.483Z,-1.90
2022-11-20T15:04:31.276Z,-1.84
2022-11-20T15:09:34.682Z,-1.85
2022-11-20T15:14:37.771Z,-1.82
2022-11-20T15:19:40.329Z,-1.75
2022-11-20T15:24:43.427Z,-1.82
2022-11-20T15:29:46.056Z,-1.67
2022-11-20T15:34:48.695Z,-1.60
2022-11-20T15:39:51.470Z,-1.80
2022-11-20T15:44:53.972Z,-1.61
2022-11-20T15:49:56.759Z,-1.49
2022-11-20T15:54:59.311Z,-1.70
2022-11-20T16:00:02.030Z,-1.87
2022-11-20T16:05:14.996Z,-1.73
2022-11-20T16:10:17.633Z,-1.67
2022-11-20T16:15:38.560Z,-1.64
2022-11-20T16:20:41.128Z,-1.70
2022-11-20T16:25:44.495Z,-1.86
2022-11-20T16:30:47.510Z,-2.12
2022-11-20T16:35:50.115Z,-2.06
2022-11-20T16:40:52.668Z,-2.14
2022-11-20T16:45:55.288Z,-2.15
2022-11-20T16:50:57.808Z,-2.07
2022-11-20T16:56:14.282Z,-1.89
2022-11-20T17:01:21.578Z,-2.21
2022-11-20T17:06:26.945Z,-2.16
2022-11-20T17:11:29.771Z,-2.38
2022-11-20T17:16:32.460Z,-2.80
2022-11-20T17:21:36.526Z,-2.75
2022-11-20T17:26:41.672Z,-2.67
2022-11-20T17:31:45.307Z,-2.48
2022-11-20T17:36:47.894Z,-2.46
2022-11-20T17:42:10.396Z,-2.28
2022-11-20T17:47:13.584Z,-2.54
2022-11-20T17:52:17.182Z,-2.63
2022-11-20T17:57:38.727Z,-2.72
2022-11-20T18:02:41.248Z,-2.76
2022-11-20T18:07:44.464Z,-2.79
2022-11-20T18:12:46.973Z,-2.92
2022-11-20T18:17:49.523Z,-2.89
2022-11-20T18:22:52.090Z,-2.83
2022-11-20T18:27:54.764Z,-2.72
2022-11-20T18:32:57.723Z,-2.70
2022-11-20T18:38:00.364Z,-2.46
2022-11-20T18:43:21.990Z,-2.35
2022-11-20T18:48:24.636Z,-2.39
2022-11-20T18:53:27.188Z,-2.24
2022-11-20T18:58:29.763Z,-2.26
2022-11-20T19:03:32.453Z,-2.48
2022-11-20T19:08:36.359Z,-2.30
2022-11-20T19:13:39.651Z,-2.29
2022-11-20T19:18:43.778Z,-2.37
2022-11-20T19:23:51.664Z,-2.44
2022-11-20T19:28:55.350Z,-2.55
2022-11-20T19:34:02.857Z,-2.51
2022-11-20T19:39:07.728Z,-2.62
2022-11-20T19:44:14.007Z,-2.89
2022-11-20T19:49:16.635Z,-2.87
2022-11-20T19:54:19.232Z,-2.87
2022-11-20T19:59:22.027Z,-2.84
2022-11-20T20:04:25.111Z,-2.61
2022-11-20T20:09:27.706Z,-2.48
2022-11-20T20:14:31.583Z,-2.16
2022-11-20T20:19:34.288Z,-2.06
2022-11-20T20:24:36.817Z,-2.01
2022-11-20T20:29:39.431Z,-2.12
2022-11-20T20:34:42.323Z,-2.18
2022-11-20T20:39:44.851Z,-2.25
2022-11-20T20:45:05.826Z,-2.09
2022-11-20T20:50:11.185Z,-2.11
2022-11-20T20:55:13.847Z,-1.99
2022-11-20T21:00:18.139Z,-2.29
2022-11-20T21:05:20.730Z,-2.46
2022-11-20T21:10:23.991Z,-2.74
2022-11-20T21:15:27.035Z,-2.50
2022-11-20T21:20:48.003Z,-2.49
2022-11-20T21:25:50.515Z,-2.28
2022-11-20T21:30:53.141Z,-2.34
2022-11-20T21:35:58.524Z,-2.18
2022-11-20T21:41:01.942Z,-2.50
2022-11-20T21:46:09.915Z,-2.58
2022-11-20T21:51:15.400Z,-2.49
2022-11-20T21:56:20.701Z,-2.74
2022-11-20T22:01:29.432Z,-2.06
2022-11-20T22:06:34.105Z,-1.90
2022-11-20T22:16:39.400Z,-1.78
2022-11-20T22:21:42.130Z,-1.75
2022-11-20T22:26:44.932Z,-2.01
2022-11-20T22:31:48.068Z,-1.98
2022-11-20T22:36:50.604Z,-2.08
2022-11-20T22:41:53.127Z,-1.97
2022-11-20T22:46:55.686Z,-1.87
2022-11-20T22:51:58.231Z,-2.12
2022-11-20T22:57:00.787Z,-1.90
2022-11-20T23:02:03.421Z,-2.20
2022-11-20T23:07:06.155Z,-2.33
2022-11-20T23:12:08.695Z,-2.10
2022-11-20T23:17:11.232Z,-2.18
2022-11-20T23:22:13.759Z,-2.63
2022-11-20T23:27:19.669Z,-2.77
2022-11-20T23:32:22.603Z,-2.70
2022-11-20T23:37:25.118Z,-2.60
2022-11-20T23:42:27.694Z,-2.65
2022-11-20T23:47:30.266Z,-2.85
2022-11-20T23:52:32.862Z,-2.79
2022-11-20T23:57:35.496Z,-3.07
